world map with CHA marked

CHA - Airport

This information may not be accurate or current and is not valid for navigation or flight planning. No warranty of fitness for any purpose is made or implied.

flag of Tennesseeflag of United States

Donate via PayPal

Additional information is available on the NEW Great Circle Mapper

Location
City:  Chattanooga, Tennessee, United States
Name:Lovell Field
ICAO / IATA:KCHA / CHA
FAA:CHA

Details
Type:Airport (Part 139 Class I)
Use:Public/Civil
Latitude:35°02'07"N (35.035194)
Longitude:85°12'13"W (-85.203555)
Datum:WGS 1984
Elevation:682 ft (208 m)
Runways:2
Longest:7400 × 150 ft (2256 × 45.5 m)

Time
Timezone:UTC+29:08 (DST+32:08)
Local Time:

Weather
METAR:KCHA  210253Z 00000KT 10SM FEW250 10/04 A3029 RMK AO2 SLP257 T01000039 53007
TAF:KCHA  202320Z 2100/2124 03005KT P6SM SKC= TAF KCKV 202320Z 2100/2124 07007KT P6SM FEW300
FM211800 12008KT P6SM FEW250

Related Locations
Nearby:
Farthest:YAUG: 11285 mi / 18162 km
Augusta [Augusta Airport], WA, AU

Find:

   beyond  
but within

Other Information
Maps:
Delays:
Links:
Sources:

  

Airport Diagram

Airport diagram for CHA

Airport diagram PDF from FAA

Sectional Chart

Flight Planning
at skyvector.com

 


Great Circle Mapper   Great Circle Mapper
Great Circle Mapper FAQ   Great Circle Mapper FAQ
  Karl's Home Page
KLSē   KLSē Home
   GC on Facebook
Airlines of the World   Airlines of the World
Donate via PayPal


Copyright © 2004-2017, Karl L. Swartz. All rights reserved.
All trademarks mentioned herein belong to their respective owners.

Please see credits for attribution and copyright information.

Karl Swartz <karl@kls2.com>
  Powered by FreeBSD
Valid HTML 4.01!
Labeled with ICRA
hCard Microformat
Geo Microformat